sensor_id;sensor_type;location;lat;lon;timestamp;P1;durP1;ratioP1;P2;durP2;ratioP2
48733;SDS011;34530;52.084;5.146;2022-09-09T00:04:31;1.67;;;0.90;;
48733;SDS011;34530;52.084;5.146;2022-09-09T00:09:28;1.08;;;0.68;;
48733;SDS011;34530;52.084;5.146;2022-09-09T00:14:32;1.23;;;0.77;;
48733;SDS011;34530;52.084;5.146;2022-09-09T00:17:14;0.70;;;0.70;;
48733;SDS011;34530;52.084;5.146;2022-09-09T00:22:38;1.20;;;0.60;;
48733;SDS011;34530;52.084;5.146;2022-09-09T00:25:12;0.75;;;0.50;;
48733;SDS011;34530;52.084;5.146;2022-09-09T00:27:47;0.85;;;0.52;;
48733;SDS011;34530;52.084;5.146;2022-09-09T00:30:18;1.35;;;0.70;;
48733;SDS011;34530;52.084;5.146;2022-09-09T00:32:48;1.70;;;0.77;;
48733;SDS011;34530;52.084;5.146;2022-09-09T00:37:50;0.88;;;0.50;;
48733;SDS011;34530;52.084;5.146;2022-09-09T00:40:27;1.63;;;0.75;;
48733;SDS011;34530;52.084;5.146;2022-09-09T00:51:30;0.98;;;0.57;;
48733;SDS011;34530;52.084;5.146;2022-09-09T00:54:32;2.05;;;0.60;;
48733;SDS011;34530;52.084;5.146;2022-09-09T01:10:55;1.00;;;0.65;;
48733;SDS011;34530;52.084;5.146;2022-09-09T01:13:27;0.93;;;0.70;;
48733;SDS011;34530;52.084;5.146;2022-09-09T01:15:55;1.27;;;0.90;;
48733;SDS011;34530;52.084;5.146;2022-09-09T01:18:26;1.10;;;0.60;;
48733;SDS011;34530;52.084;5.146;2022-09-09T01:26:47;0.68;;;0.45;;
48733;SDS011;34530;52.084;5.146;2022-09-09T01:29:17;2.45;;;0.60;;
48733;SDS011;34530;52.084;5.146;2022-09-09T01:31:57;0.77;;;0.60;;
48733;SDS011;34530;52.084;5.146;2022-09-09T01:34:25;1.25;;;0.65;;
48733;SDS011;34530;52.084;5.146;2022-09-09T01:37:09;0.60;;;0.50;;
48733;SDS011;34530;52.084;5.146;2022-09-09T01:39:37;0.77;;;0.50;;
48733;SDS011;34530;52.084;5.146;2022-09-09T01:42:06;3.08;;;0.80;;
48733;SDS011;34530;52.084;5.146;2022-09-09T01:44:34;1.63;;;0.77;;
48733;SDS011;34530;52.084;5.146;2022-09-09T01:47:01;0.77;;;0.60;;
48733;SDS011;34530;52.084;5.146;2022-09-09T01:49:27;1.17;;;0.60;;
48733;SDS011;34530;52.084;5.146;2022-09-09T01:51:54;0.82;;;0.50;;
48733;SDS011;34530;52.084;5.146;2022-09-09T01:54:21;0.75;;;0.60;;
48733;SDS011;34530;52.084;5.146;2022-09-09T01:59:39;0.65;;;0.50;;
48733;SDS011;34530;52.084;5.146;2022-09-09T02:02:13;1.85;;;0.95;;
48733;SDS011;34530;52.084;5.146;2022-09-09T02:04:42;1.75;;;0.68;;
48733;SDS011;34530;52.084;5.146;2022-09-09T02:10:12;2.88;;;0.70;;
48733;SDS011;34530;52.084;5.146;2022-09-09T02:13:10;1.17;;;0.70;;
48733;SDS011;34530;52.084;5.146;2022-09-09T02:15:57;2.10;;;0.80;;
48733;SDS011;34530;52.084;5.146;2022-09-09T02:18:38;2.33;;;0.60;;
48733;SDS011;34530;52.084;5.146;2022-09-09T02:21:10;0.63;;;0.40;;
48733;SDS011;34530;52.084;5.146;2022-09-09T02:23:37;0.80;;;0.80;;
48733;SDS011;34530;52.084;5.146;2022-09-09T02:26:04;0.88;;;0.60;;
48733;SDS011;34530;52.084;5.146;2022-09-09T02:28:32;0.88;;;0.50;;
48733;SDS011;34530;52.084;5.146;2022-09-09T02:31:00;0.85;;;0.60;;
48733;SDS011;34530;52.084;5.146;2022-09-09T02:33:27;0.68;;;0.50;;
48733;SDS011;34530;52.084;5.146;2022-09-09T02:35:59;0.80;;;0.50;;
48733;SDS011;34530;52.084;5.146;2022-09-09T02:38:29;1.42;;;0.70;;
48733;SDS011;34530;52.084;5.146;2022-09-09T02:41:01;1.23;;;0.60;;
48733;SDS011;34530;52.084;5.146;2022-09-09T02:43:30;1.05;;;0.95;;
48733;SDS011;34530;52.084;5.146;2022-09-09T02:49:08;1.35;;;0.80;;
48733;SDS011;34530;52.084;5.146;2022-09-09T02:54:27;2.50;;;0.75;;
48733;SDS011;34530;52.084;5.146;2022-09-09T02:57:05;1.17;;;0.80;;
48733;SDS011;34530;52.084;5.146;2022-09-09T02:59:44;0.70;;;0.60;;
48733;SDS011;34530;52.084;5.146;2022-09-09T03:02:10;0.73;;;0.60;;
48733;SDS011;34530;52.084;5.146;2022-09-09T03:04:36;1.17;;;0.50;;
48733;SDS011;34530;52.084;5.146;2022-09-09T03:07:02;3.65;;;0.70;;
48733;SDS011;34530;52.084;5.146;2022-09-09T03:09:28;1.00;;;0.60;;
48733;SDS011;34530;52.084;5.146;2022-09-09T03:11:54;0.95;;;0.60;;
48733;SDS011;34530;52.084;5.146;2022-09-09T03:14:21;0.70;;;0.60;;
48733;SDS011;34530;52.084;5.146;2022-09-09T03:16:50;1.30;;;0.60;;
48733;SDS011;34530;52.084;5.146;2022-09-09T03:19:16;1.20;;;0.50;;
48733;SDS011;34530;52.084;5.146;2022-09-09T03:21:43;0.70;;;0.60;;
48733;SDS011;34530;52.084;5.146;2022-09-09T03:24:09;1.25;;;0.73;;
48733;SDS011;34530;52.084;5.146;2022-09-09T03:26:35;1.63;;;0.60;;
48733;SDS011;34530;52.084;5.146;2022-09-09T03:29:02;1.38;;;0.73;;
48733;SDS011;34530;52.084;5.146;2022-09-09T03:31:31;1.13;;;0.65;;
48733;SDS011;34530;52.084;5.146;2022-09-09T03:33:57;2.38;;;0.60;;
48733;SDS011;34530;52.084;5.146;2022-09-09T03:36:23;1.65;;;0.80;;
48733;SDS011;34530;52.084;5.146;2022-09-09T03:38:51;1.65;;;0.82;;
48733;SDS011;34530;52.084;5.146;2022-09-09T03:41:17;2.38;;;0.80;;
48733;SDS011;34530;52.084;5.146;2022-09-09T03:43:43;3.78;;;0.90;;
48733;SDS011;34530;52.084;5.146;2022-09-09T03:46:09;0.55;;;0.50;;
48733;SDS011;34530;52.084;5.146;2022-09-09T03:48:35;1.00;;;0.68;;
48733;SDS011;34530;52.084;5.146;2022-09-09T03:51:00;1.63;;;0.77;;
48733;SDS011;34530;52.084;5.146;2022-09-09T03:53:28;0.98;;;0.80;;
48733;SDS011;34530;52.084;5.146;2022-09-09T03:55:55;1.40;;;0.60;;
48733;SDS011;34530;52.084;5.146;2022-09-09T03:58:24;1.08;;;0.60;;
48733;SDS011;34530;52.084;5.146;2022-09-09T04:00:55;0.85;;;0.52;;
48733;SDS011;34530;52.084;5.146;2022-09-09T04:03:22;1.52;;;0.70;;
48733;SDS011;34530;52.084;5.146;2022-09-09T04:05:49;1.15;;;0.60;;
48733;SDS011;34530;52.084;5.146;2022-09-09T04:08:19;1.27;;;0.73;;
48733;SDS011;34530;52.084;5.146;2022-09-09T04:10:45;0.55;;;0.50;;
48733;SDS011;34530;52.084;5.146;2022-09-09T04:13:13;1.67;;;0.60;;
48733;SDS011;34530;52.084;5.146;2022-09-09T04:15:40;2.35;;;0.60;;
48733;SDS011;34530;52.084;5.146;2022-09-09T04:18:06;1.50;;;0.82;;
48733;SDS011;34530;52.084;5.146;2022-09-09T04:20:31;1.67;;;0.80;;
48733;SDS011;34530;52.084;5.146;2022-09-09T04:22:57;3.13;;;0.70;;
48733;SDS011;34530;52.084;5.146;2022-09-09T04:25:23;1.55;;;0.70;;
48733;SDS011;34530;52.084;5.146;2022-09-09T04:27:55;0.90;;;0.70;;
48733;SDS011;34530;52.084;5.146;2022-09-09T04:30:22;1.60;;;0.60;;
48733;SDS011;34530;52.084;5.146;2022-09-09T04:32:48;2.33;;;0.75;;
48733;SDS011;34530;52.084;5.146;2022-09-09T04:35:14;1.00;;;0.52;;
48733;SDS011;34530;52.084;5.146;2022-09-09T04:37:40;2.15;;;0.70;;
48733;SDS011;34530;52.084;5.146;2022-09-09T04:40:06;1.48;;;0.70;;
48733;SDS011;34530;52.084;5.146;2022-09-09T04:42:37;1.33;;;0.70;;
48733;SDS011;34530;52.084;5.146;2022-09-09T04:45:03;0.75;;;0.50;;
48733;SDS011;34530;52.084;5.146;2022-09-09T04:47:31;0.57;;;0.50;;
48733;SDS011;34530;52.084;5.146;2022-09-09T04:49:56;0.68;;;0.60;;
48733;SDS011;34530;52.084;5.146;2022-09-09T04:52:22;1.02;;;0.70;;
48733;SDS011;34530;52.084;5.146;2022-09-09T04:54:48;1.35;;;0.70;;
48733;SDS011;34530;52.084;5.146;2022-09-09T04:57:13;2.70;;;0.60;;
48733;SDS011;34530;52.084;5.146;2022-09-09T04:59:39;1.35;;;0.50;;
48733;SDS011;34530;52.084;5.146;2022-09-09T05:02:05;1.83;;;0.70;;
48733;SDS011;34530;52.084;5.146;2022-09-09T05:04:30;2.25;;;0.63;;
48733;SDS011;34530;52.084;5.146;2022-09-09T05:06:56;1.25;;;0.68;;
48733;SDS011;34530;52.084;5.146;2022-09-09T05:09:22;0.85;;;0.52;;
48733;SDS011;34530;52.084;5.146;2022-09-09T05:11:47;0.50;;;0.50;;
48733;SDS011;34530;52.084;5.146;2022-09-09T05:14:13;1.20;;;0.70;;
48733;SDS011;34530;52.084;5.146;2022-09-09T05:16:40;2.08;;;0.77;;
48733;SDS011;34530;52.084;5.146;2022-09-09T05:19:05;0.98;;;0.60;;
48733;SDS011;34530;52.084;5.146;2022-09-09T05:21:33;2.67;;;0.90;;
48733;SDS011;34530;52.084;5.146;2022-09-09T05:23:59;2.17;;;0.80;;
48733;SDS011;34530;52.084;5.146;2022-09-09T05:26:27;1.17;;;0.65;;
48733;SDS011;34530;52.084;5.146;2022-09-09T05:28:54;1.25;;;0.52;;
48733;SDS011;34530;52.084;5.146;2022-09-09T05:31:20;1.40;;;0.75;;
48733;SDS011;34530;52.084;5.146;2022-09-09T05:33:46;1.48;;;0.85;;
48733;SDS011;34530;52.084;5.146;2022-09-09T05:36:14;1.92;;;0.50;;
48733;SDS011;34530;52.084;5.146;2022-09-09T05:38:44;1.05;;;0.95;;
48733;SDS011;34530;52.084;5.146;2022-09-09T05:41:11;3.08;;;0.63;;
48733;SDS011;34530;52.084;5.146;2022-09-09T05:43:37;2.17;;;0.70;;
48733;SDS011;34530;52.084;5.146;2022-09-09T05:46:07;2.35;;;0.80;;
48733;SDS011;34530;52.084;5.146;2022-09-09T05:48:34;0.98;;;0.52;;
48733;SDS011;34530;52.084;5.146;2022-09-09T05:51:05;1.75;;;0.82;;
48733;SDS011;34530;52.084;5.146;2022-09-09T05:53:33;1.63;;;0.68;;
48733;SDS011;34530;52.084;5.146;2022-09-09T05:58:29;1.98;;;0.82;;
48733;SDS011;34530;52.084;5.146;2022-09-09T06:01:08;0.80;;;0.60;;
48733;SDS011;34530;52.084;5.146;2022-09-09T06:03:42;1.75;;;0.70;;
48733;SDS011;34530;52.084;5.146;2022-09-09T06:06:10;2.08;;;0.90;;
48733;SDS011;34530;52.084;5.146;2022-09-09T06:08:37;2.65;;;0.70;;
48733;SDS011;34530;52.084;5.146;2022-09-09T06:11:08;1.35;;;0.73;;
48733;SDS011;34530;52.084;5.146;2022-09-09T06:13:36;1.67;;;0.75;;
48733;SDS011;34530;52.084;5.146;2022-09-09T06:16:04;1.45;;;0.65;;
48733;SDS011;34530;52.084;5.146;2022-09-09T06:18:32;2.05;;;1.05;;
48733;SDS011;34530;52.084;5.146;2022-09-09T06:20:58;1.00;;;0.63;;
48733;SDS011;34530;52.084;5.146;2022-09-09T06:23:26;1.83;;;0.68;;
48733;SDS011;34530;52.084;5.146;2022-09-09T06:26:12;1.05;;;0.60;;
48733;SDS011;34530;52.084;5.146;2022-09-09T06:28:39;1.52;;;0.80;;
48733;SDS011;34530;52.084;5.146;2022-09-09T06:31:08;2.28;;;0.60;;
48733;SDS011;34530;52.084;5.146;2022-09-09T06:33:36;1.48;;;0.80;;
48733;SDS011;34530;52.084;5.146;2022-09-09T06:36:15;1.40;;;0.85;;
48733;SDS011;34530;52.084;5.146;2022-09-09T06:38:42;2.67;;;0.88;;
48733;SDS011;34530;52.084;5.146;2022-09-09T06:41:09;1.33;;;0.68;;
48733;SDS011;34530;52.084;5.146;2022-09-09T06:43:37;1.55;;;0.82;;
48733;SDS011;34530;52.084;5.146;2022-09-09T06:46:08;2.10;;;0.70;;
48733;SDS011;34530;52.084;5.146;2022-09-09T06:48:35;1.75;;;0.70;;
48733;SDS011;34530;52.084;5.146;2022-09-09T06:51:02;3.15;;;0.80;;
48733;SDS011;34530;52.084;5.146;2022-09-09T06:53:30;1.85;;;0.90;;
48733;SDS011;34530;52.084;5.146;2022-09-09T06:55:58;1.23;;;0.70;;
48733;SDS011;34530;52.084;5.146;2022-09-09T06:58:26;1.77;;;0.88;;
48733;SDS011;34530;52.084;5.146;2022-09-09T07:00:51;2.35;;;0.90;;
48733;SDS011;34530;52.084;5.146;2022-09-09T07:03:17;1.40;;;0.85;;
48733;SDS011;34530;52.084;5.146;2022-09-09T07:05:43;1.23;;;0.80;;
48733;SDS011;34530;52.084;5.146;2022-09-09T07:08:18;2.75;;;0.88;;
48733;SDS011;34530;52.084;5.146;2022-09-09T07:10:43;2.10;;;0.70;;
48733;SDS011;34530;52.084;5.146;2022-09-09T07:13:09;1.90;;;0.70;;
48733;SDS011;34530;52.084;5.146;2022-09-09T07:15:35;1.48;;;0.77;;
48733;SDS011;34530;52.084;5.146;2022-09-09T07:18:01;2.45;;;1.02;;
48733;SDS011;34530;52.084;5.146;2022-09-09T07:20:27;1.67;;;0.80;;
48733;SDS011;34530;52.084;5.146;2022-09-09T07:22:54;1.98;;;0.80;;
48733;SDS011;34530;52.084;5.146;2022-09-09T07:25:20;2.13;;;0.82;;
48733;SDS011;34530;52.084;5.146;2022-09-09T07:27:46;2.55;;;0.90;;
48733;SDS011;34530;52.084;5.146;2022-09-09T07:30:12;1.88;;;0.95;;
48733;SDS011;34530;52.084;5.146;2022-09-09T07:32:38;1.67;;;1.00;;
48733;SDS011;34530;52.084;5.146;2022-09-09T07:35:05;4.03;;;1.00;;
48733;SDS011;34530;52.084;5.146;2022-09-09T07:37:31;1.42;;;0.90;;
48733;SDS011;34530;52.084;5.146;2022-09-09T07:39:56;1.67;;;1.00;;
48733;SDS011;34530;52.084;5.146;2022-09-09T07:42:22;2.65;;;1.00;;
48733;SDS011;34530;52.084;5.146;2022-09-09T07:44:47;3.22;;;1.50;;
48733;SDS011;34530;52.084;5.146;2022-09-09T07:47:13;2.28;;;0.77;;
48733;SDS011;34530;52.084;5.146;2022-09-09T07:49:41;2.80;;;0.70;;
48733;SDS011;34530;52.084;5.146;2022-09-09T07:52:06;2.13;;;0.90;;
48733;SDS011;34530;52.084;5.146;2022-09-09T07:54:32;2.40;;;0.85;;
48733;SDS011;34530;52.084;5.146;2022-09-09T07:56:57;2.15;;;0.70;;
48733;SDS011;34530;52.084;5.146;2022-09-09T07:59:23;2.00;;;0.77;;
48733;SDS011;34530;52.084;5.146;2022-09-09T08:01:50;3.45;;;1.00;;
48733;SDS011;34530;52.084;5.146;2022-09-09T08:04:19;4.53;;;0.90;;
48733;SDS011;34530;52.084;5.146;2022-09-09T08:06:47;2.63;;;1.08;;
48733;SDS011;34530;52.084;5.146;2022-09-09T08:09:15;2.75;;;0.82;;
48733;SDS011;34530;52.084;5.146;2022-09-09T08:11:41;2.60;;;0.95;;
48733;SDS011;34530;52.084;5.146;2022-09-09T08:14:07;2.78;;;0.90;;
48733;SDS011;34530;52.084;5.146;2022-09-09T08:16:35;2.35;;;0.90;;
48733;SDS011;34530;52.084;5.146;2022-09-09T08:19:05;1.67;;;1.00;;
48733;SDS011;34530;52.084;5.146;2022-09-09T08:21:32;2.58;;;1.10;;
48733;SDS011;34530;52.084;5.146;2022-09-09T08:24:00;2.35;;;1.10;;
48733;SDS011;34530;52.084;5.146;2022-09-09T08:26:27;2.90;;;0.88;;
48733;SDS011;34530;52.084;5.146;2022-09-09T08:28:55;2.60;;;0.98;;
48733;SDS011;34530;52.084;5.146;2022-09-09T08:31:23;2.83;;;0.82;;
48733;SDS011;34530;52.084;5.146;2022-09-09T08:33:51;3.08;;;1.13;;
48733;SDS011;34530;52.084;5.146;2022-09-09T08:36:20;3.35;;;1.58;;
48733;SDS011;34530;52.084;5.146;2022-09-09T08:38:49;2.22;;;0.82;;
48733;SDS011;34530;52.084;5.146;2022-09-09T08:58:21;3.78;;;1.52;;
48733;SDS011;34530;52.084;5.146;2022-09-09T09:06:36;3.35;;;1.17;;
48733;SDS011;34530;52.084;5.146;2022-09-09T09:12:14;3.55;;;1.10;;
48733;SDS011;34530;52.084;5.146;2022-09-09T09:14:42;4.25;;;1.10;;
48733;SDS011;34530;52.084;5.146;2022-09-09T09:17:14;3.80;;;1.40;;
48733;SDS011;34530;52.084;5.146;2022-09-09T09:19:44;6.10;;;1.45;;
48733;SDS011;34530;52.084;5.146;2022-09-09T09:24:53;2.17;;;0.90;;
48733;SDS011;34530;52.084;5.146;2022-09-09T09:30:14;4.38;;;1.40;;
48733;SDS011;34530;52.084;5.146;2022-09-09T09:33:08;2.50;;;1.10;;
48733;SDS011;34530;52.084;5.146;2022-09-09T09:35:33;5.20;;;1.05;;
48733;SDS011;34530;52.084;5.146;2022-09-09T09:37:59;4.57;;;1.15;;
48733;SDS011;34530;52.084;5.146;2022-09-09T09:40:26;2.17;;;1.00;;
48733;SDS011;34530;52.084;5.146;2022-09-09T09:42:55;3.05;;;1.10;;
48733;SDS011;34530;52.084;5.146;2022-09-09T09:48:02;4.30;;;1.10;;
48733;SDS011;34530;52.084;5.146;2022-09-09T09:50:33;3.28;;;1.27;;
48733;SDS011;34530;52.084;5.146;2022-09-09T09:53:03;3.03;;;1.38;;
48733;SDS011;34530;52.084;5.146;2022-09-09T09:55:30;1.88;;;1.40;;
48733;SDS011;34530;52.084;5.146;2022-09-09T09:58:02;2.75;;;1.05;;
48733;SDS011;34530;52.084;5.146;2022-09-09T10:00:30;2.30;;;1.08;;
48733;SDS011;34530;52.084;5.146;2022-09-09T10:02:56;3.10;;;1.00;;
48733;SDS011;34530;52.084;5.146;2022-09-09T10:05:22;1.63;;;0.82;;
48733;SDS011;34530;52.084;5.146;2022-09-09T10:13:35;3.15;;;1.05;;
48733;SDS011;34530;52.084;5.146;2022-09-09T10:21:28;2.53;;;1.10;;
48733;SDS011;34530;52.084;5.146;2022-09-09T10:26:40;2.20;;;1.00;;
48733;SDS011;34530;52.084;5.146;2022-09-09T10:29:23;3.90;;;1.20;;
48733;SDS011;34530;52.084;5.146;2022-09-09T10:37:53;5.03;;;1.30;;
48733;SDS011;34530;52.084;5.146;2022-09-09T10:40:02;2.65;;;1.00;;
48733;SDS011;34530;52.084;5.146;2022-09-09T10:42:51;5.40;;;1.48;;
48733;SDS011;34530;52.084;5.146;2022-09-09T10:45:23;3.22;;;1.17;;
48733;SDS011;34530;52.084;5.146;2022-09-09T10:48:13;3.05;;;1.00;;
48733;SDS011;34530;52.084;5.146;2022-09-09T10:56:18;1.70;;;1.17;;
48733;SDS011;34530;52.084;5.146;2022-09-09T11:01:26;3.42;;;1.20;;
48733;SDS011;34530;52.084;5.146;2022-09-09T11:03:57;7.85;;;1.65;;
48733;SDS011;34530;52.084;5.146;2022-09-09T11:06:41;1.60;;;1.05;;
48733;SDS011;34530;52.084;5.146;2022-09-09T11:09:23;2.65;;;1.00;;
48733;SDS011;34530;52.084;5.146;2022-09-09T11:11:53;2.20;;;1.00;;
48733;SDS011;34530;52.084;5.146;2022-09-09T11:14:26;1.90;;;0.80;;
48733;SDS011;34530;52.084;5.146;2022-09-09T11:19:43;4.32;;;1.60;;
48733;SDS011;34530;52.084;5.146;2022-09-09T11:27:37;4.35;;;0.90;;
48733;SDS011;34530;52.084;5.146;2022-09-09T11:30:33;2.05;;;1.00;;
48733;SDS011;34530;52.084;5.146;2022-09-09T11:33:26;3.35;;;1.00;;
48733;SDS011;34530;52.084;5.146;2022-09-09T11:38:45;1.70;;;0.93;;
48733;SDS011;34530;52.084;5.146;2022-09-09T11:41:12;3.35;;;1.05;;
48733;SDS011;34530;52.084;5.146;2022-09-09T11:43:47;3.63;;;1.20;;
48733;SDS011;34530;52.084;5.146;2022-09-09T11:46:18;3.65;;;1.25;;
48733;SDS011;34530;52.084;5.146;2022-09-09T11:49:00;2.88;;;1.15;;
48733;SDS011;34530;52.084;5.146;2022-09-09T11:51:28;2.03;;;1.10;;
48733;SDS011;34530;52.084;5.146;2022-09-09T11:53:56;2.65;;;1.13;;
48733;SDS011;34530;52.084;5.146;2022-09-09T11:56:31;3.13;;;0.90;;
48733;SDS011;34530;52.084;5.146;2022-09-09T11:59:03;2.90;;;1.45;;
48733;SDS011;34530;52.084;5.146;2022-09-09T12:01:45;2.78;;;0.95;;
48733;SDS011;34530;52.084;5.146;2022-09-09T12:04:37;2.03;;;1.05;;
48733;SDS011;34530;52.084;5.146;2022-09-09T12:07:50;2.30;;;1.02;;
48733;SDS011;34530;52.084;5.146;2022-09-09T12:10:05;5.13;;;1.30;;
48733;SDS011;34530;52.084;5.146;2022-09-09T12:12:45;3.17;;;1.25;;
48733;SDS011;34530;52.084;5.146;2022-09-09T12:17:43;3.47;;;1.20;;
48733;SDS011;34530;52.084;5.146;2022-09-09T12:28:39;4.10;;;1.13;;
48733;SDS011;34530;52.084;5.146;2022-09-09T12:39:56;3.42;;;1.20;;
48733;SDS011;34530;52.084;5.146;2022-09-09T12:42:24;2.35;;;0.80;;
48733;SDS011;34530;52.084;5.146;2022-09-09T12:44:54;2.70;;;0.98;;
48733;SDS011;34530;52.084;5.146;2022-09-09T12:47:23;3.28;;;0.90;;
48733;SDS011;34530;52.084;5.146;2022-09-09T12:53:01;3.10;;;0.90;;
48733;SDS011;34530;52.084;5.146;2022-09-09T12:55:32;2.58;;;1.05;;
48733;SDS011;34530;52.084;5.146;2022-09-09T12:58:01;3.33;;;1.20;;
48733;SDS011;34530;52.084;5.146;2022-09-09T13:00:31;2.30;;;1.10;;
48733;SDS011;34530;52.084;5.146;2022-09-09T13:03:03;2.45;;;1.02;;
48733;SDS011;34530;52.084;5.146;2022-09-09T13:05:42;3.38;;;1.00;;
48733;SDS011;34530;52.084;5.146;2022-09-09T13:08:08;3.28;;;1.10;;
48733;SDS011;34530;52.084;5.146;2022-09-09T13:10:40;3.17;;;0.85;;
48733;SDS011;34530;52.084;5.146;2022-09-09T13:13:15;4.53;;;1.52;;
48733;SDS011;34530;52.084;5.146;2022-09-09T13:15:49;1.95;;;1.30;;
48733;SDS011;34530;52.084;5.146;2022-09-09T13:18:18;3.65;;;1.20;;
48733;SDS011;34530;52.084;5.146;2022-09-09T13:20:48;3.13;;;1.25;;
48733;SDS011;34530;52.084;5.146;2022-09-09T13:23:15;2.35;;;1.27;;
48733;SDS011;34530;52.084;5.146;2022-09-09T13:25:54;4.25;;;1.30;;
48733;SDS011;34530;52.084;5.146;2022-09-09T13:28:23;2.85;;;1.35;;
48733;SDS011;34530;52.084;5.146;2022-09-09T13:30:55;2.75;;;1.20;;
48733;SDS011;34530;52.084;5.146;2022-09-09T13:33:44;3.28;;;1.30;;
48733;SDS011;34530;52.084;5.146;2022-09-09T13:36:10;1.48;;;0.88;;
48733;SDS011;34530;52.084;5.146;2022-09-09T13:38:38;2.13;;;1.02;;
48733;SDS011;34530;52.084;5.146;2022-09-09T13:41:22;2.63;;;0.93;;
48733;SDS011;34530;52.084;5.146;2022-09-09T13:43:50;3.80;;;1.08;;
48733;SDS011;34530;52.084;5.146;2022-09-09T13:46:25;3.47;;;1.10;;
48733;SDS011;34530;52.084;5.146;2022-09-09T13:51:34;2.33;;;1.05;;
48733;SDS011;34530;52.084;5.146;2022-09-09T13:54:04;1.77;;;0.85;;
48733;SDS011;34530;52.084;5.146;2022-09-09T13:56:31;2.17;;;0.98;;
48733;SDS011;34530;52.084;5.146;2022-09-09T13:58:58;2.63;;;1.13;;
48733;SDS011;34530;52.084;5.146;2022-09-09T14:01:24;3.92;;;1.45;;
48733;SDS011;34530;52.084;5.146;2022-09-09T14:03:49;3.53;;;1.17;;
48733;SDS011;34530;52.084;5.146;2022-09-09T14:06:17;2.10;;;1.27;;
48733;SDS011;34530;52.084;5.146;2022-09-09T14:08:44;2.00;;;1.05;;
48733;SDS011;34530;52.084;5.146;2022-09-09T14:11:11;2.45;;;1.15;;
48733;SDS011;34530;52.084;5.146;2022-09-09T14:13:37;2.55;;;1.35;;
48733;SDS011;34530;52.084;5.146;2022-09-09T14:16:04;3.08;;;1.30;;
48733;SDS011;34530;52.084;5.146;2022-09-09T14:18:29;1.77;;;1.13;;
48733;SDS011;34530;52.084;5.146;2022-09-09T14:20:55;2.70;;;1.00;;
48733;SDS011;34530;52.084;5.146;2022-09-09T14:23:22;3.85;;;1.00;;
48733;SDS011;34530;52.084;5.146;2022-09-09T14:25:49;2.67;;;1.00;;
48733;SDS011;34530;52.084;5.146;2022-09-09T14:28:15;3.63;;;1.00;;
48733;SDS011;34530;52.084;5.146;2022-09-09T14:30:41;1.92;;;0.90;;
48733;SDS011;34530;52.084;5.146;2022-09-09T14:33:09;4.25;;;1.80;;
48733;SDS011;34530;52.084;5.146;2022-09-09T14:35:37;2.22;;;1.10;;
48733;SDS011;34530;52.084;5.146;2022-09-09T14:38:03;3.38;;;1.20;;
48733;SDS011;34530;52.084;5.146;2022-09-09T14:40:29;1.40;;;0.90;;
48733;SDS011;34530;52.084;5.146;2022-09-09T14:42:55;3.60;;;1.02;;
48733;SDS011;34530;52.084;5.146;2022-09-09T14:45:21;2.85;;;1.00;;
48733;SDS011;34530;52.084;5.146;2022-09-09T14:47:49;2.08;;;0.75;;
48733;SDS011;34530;52.084;5.146;2022-09-09T14:50:15;2.72;;;1.13;;
48733;SDS011;34530;52.084;5.146;2022-09-09T14:52:41;1.52;;;1.10;;
48733;SDS011;34530;52.084;5.146;2022-09-09T14:55:07;3.83;;;1.23;;
48733;SDS011;34530;52.084;5.146;2022-09-09T14:57:33;4.47;;;1.30;;
48733;SDS011;34530;52.084;5.146;2022-09-09T15:00:00;4.25;;;1.08;;
48733;SDS011;34530;52.084;5.146;2022-09-09T15:02:26;4.68;;;1.38;;
48733;SDS011;34530;52.084;5.146;2022-09-09T15:04:52;2.78;;;1.10;;
48733;SDS011;34530;52.084;5.146;2022-09-09T15:07:18;4.93;;;1.27;;
48733;SDS011;34530;52.084;5.146;2022-09-09T15:09:44;2.42;;;1.25;;
48733;SDS011;34530;52.084;5.146;2022-09-09T15:12:10;2.58;;;1.02;;
48733;SDS011;34530;52.084;5.146;2022-09-09T15:14:35;2.38;;;1.20;;
48733;SDS011;34530;52.084;5.146;2022-09-09T15:17:01;3.97;;;1.13;;
48733;SDS011;34530;52.084;5.146;2022-09-09T15:19:26;1.63;;;0.90;;
48733;SDS011;34530;52.084;5.146;2022-09-09T15:21:52;2.63;;;1.00;;
48733;SDS011;34530;52.084;5.146;2022-09-09T15:24:17;2.08;;;1.05;;
48733;SDS011;34530;52.084;5.146;2022-09-09T15:26:43;2.13;;;1.15;;
48733;SDS011;34530;52.084;5.146;2022-09-09T15:29:09;2.20;;;1.35;;
48733;SDS011;34530;52.084;5.146;2022-09-09T15:31:34;2.70;;;1.20;;
48733;SDS011;34530;52.084;5.146;2022-09-09T15:34:01;2.35;;;1.20;;
48733;SDS011;34530;52.084;5.146;2022-09-09T15:36:32;2.45;;;1.05;;
48733;SDS011;34530;52.084;5.146;2022-09-09T15:39:03;2.72;;;0.70;;
48733;SDS011;34530;52.084;5.146;2022-09-09T15:41:30;1.85;;;1.10;;
48733;SDS011;34530;52.084;5.146;2022-09-09T15:43:56;2.15;;;0.88;;
48733;SDS011;34530;52.084;5.146;2022-09-09T15:46:24;1.95;;;0.90;;
48733;SDS011;34530;52.084;5.146;2022-09-09T15:48:58;1.95;;;1.15;;
48733;SDS011;34530;52.084;5.146;2022-09-09T15:51:43;2.42;;;1.02;;
48733;SDS011;34530;52.084;5.146;2022-09-09T15:54:11;0.95;;;0.70;;
48733;SDS011;34530;52.084;5.146;2022-09-09T15:56:39;3.25;;;1.55;;
48733;SDS011;34530;52.084;5.146;2022-09-09T15:59:05;1.20;;;0.80;;
48733;SDS011;34530;52.084;5.146;2022-09-09T16:01:31;2.22;;;0.93;;
48733;SDS011;34530;52.084;5.146;2022-09-09T16:03:57;1.38;;;0.75;;
48733;SDS011;34530;52.084;5.146;2022-09-09T16:06:24;1.30;;;0.70;;
48733;SDS011;34530;52.084;5.146;2022-09-09T16:08:52;1.58;;;0.90;;
48733;SDS011;34530;52.084;5.146;2022-09-09T16:11:20;2.10;;;1.00;;
48733;SDS011;34530;52.084;5.146;2022-09-09T16:13:53;2.50;;;1.25;;
48733;SDS011;34530;52.084;5.146;2022-09-09T16:16:21;2.17;;;0.90;;
48733;SDS011;34530;52.084;5.146;2022-09-09T16:18:50;0.88;;;0.75;;
48733;SDS011;34530;52.084;5.146;2022-09-09T16:21:27;2.38;;;1.00;;
48733;SDS011;34530;52.084;5.146;2022-09-09T16:24:00;2.28;;;0.90;;
48733;SDS011;34530;52.084;5.146;2022-09-09T16:26:30;1.42;;;1.00;;
48733;SDS011;34530;52.084;5.146;2022-09-09T16:28:58;2.90;;;0.93;;
48733;SDS011;34530;52.084;5.146;2022-09-09T16:31:24;2.08;;;1.00;;
48733;SDS011;34530;52.084;5.146;2022-09-09T16:33:51;2.38;;;1.10;;
48733;SDS011;34530;52.084;5.146;2022-09-09T16:36:19;2.08;;;1.10;;
48733;SDS011;34530;52.084;5.146;2022-09-09T16:38:56;1.65;;;0.80;;
48733;SDS011;34530;52.084;5.146;2022-09-09T16:41:24;1.58;;;0.80;;
48733;SDS011;34530;52.084;5.146;2022-09-09T16:43:57;3.17;;;0.90;;
48733;SDS011;34530;52.084;5.146;2022-09-09T16:46:25;1.67;;;1.15;;
48733;SDS011;34530;52.084;5.146;2022-09-09T16:48:53;2.45;;;0.95;;
48733;SDS011;34530;52.084;5.146;2022-09-09T16:51:22;1.10;;;1.00;;
48733;SDS011;34530;52.084;5.146;2022-09-09T16:53:50;2.60;;;1.00;;
48733;SDS011;34530;52.084;5.146;2022-09-09T16:56:17;2.15;;;1.08;;
48733;SDS011;34530;52.084;5.146;2022-09-09T16:58:49;1.88;;;0.90;;
48733;SDS011;34530;52.084;5.146;2022-09-09T17:01:20;2.28;;;1.00;;
48733;SDS011;34530;52.084;5.146;2022-09-09T17:03:46;2.58;;;1.13;;
48733;SDS011;34530;52.084;5.146;2022-09-09T17:06:12;2.50;;;1.15;;
48733;SDS011;34530;52.084;5.146;2022-09-09T17:08:39;1.17;;;0.75;;
48733;SDS011;34530;52.084;5.146;2022-09-09T17:11:15;2.45;;;0.90;;
48733;SDS011;34530;52.084;5.146;2022-09-09T17:13:43;3.30;;;1.35;;
48733;SDS011;34530;52.084;5.146;2022-09-09T17:16:11;1.17;;;0.80;;
48733;SDS011;34530;52.084;5.146;2022-09-09T17:18:38;1.27;;;0.70;;
48733;SDS011;34530;52.084;5.146;2022-09-09T17:21:05;1.17;;;0.80;;
48733;SDS011;34530;52.084;5.146;2022-09-09T17:23:38;2.08;;;1.00;;
48733;SDS011;34530;52.084;5.146;2022-09-09T17:26:06;2.22;;;1.15;;
48733;SDS011;34530;52.084;5.146;2022-09-09T17:28:33;3.90;;;0.82;;
48733;SDS011;34530;52.084;5.146;2022-09-09T17:31:00;2.05;;;1.15;;
48733;SDS011;34530;52.084;5.146;2022-09-09T17:33:28;1.52;;;1.00;;
48733;SDS011;34530;52.084;5.146;2022-09-09T17:35:57;1.15;;;0.80;;